createdAt,value
2017-12-31T00:00:30.256Z,15.63
2017-12-31T00:01:36.326Z,14.65
2017-12-31T00:02:42.675Z,13.62
2017-12-31T00:03:49.026Z,14.48
2017-12-31T00:04:55.358Z,16.05
2017-12-31T00:06:01.809Z,11.75
2017-12-31T00:07:08.173Z,15.25
2017-12-31T00:08:14.439Z,20.02
2017-12-31T00:09:20.791Z,18.75
2017-12-31T00:10:27.624Z,20.88
2017-12-31T00:11:35.363Z,19.08
2017-12-31T00:12:41.957Z,17.87
2017-12-31T00:13:48.295Z,20.85
2017-12-31T00:14:58.511Z,16.65
2017-12-31T00:16:09.711Z,17.80
2017-12-31T00:17:15.984Z,16.77
2017-12-31T00:18:22.314Z,17.30
2017-12-31T00:19:28.579Z,18.33
2017-12-31T00:20:34.839Z,23.38
2017-12-31T00:21:40.492Z,14.95
2017-12-31T00:22:46.716Z,15.95
2017-12-31T00:23:52.960Z,17.83
2017-12-31T00:24:59.851Z,19.95
2017-12-31T00:26:06.198Z,13.95
2017-12-31T00:27:12.418Z,14.02
2017-12-31T00:28:18.752Z,14.30
2017-12-31T00:29:24.986Z,15.77
2017-12-31T00:30:31.348Z,17.80
2017-12-31T00:31:37.846Z,17.25
2017-12-31T00:32:44.136Z,15.25
2017-12-31T00:33:50.329Z,12.25
2017-12-31T00:34:56.563Z,17.58
2017-12-31T00:36:06.592Z,17.95
2017-12-31T00:37:13.824Z,15.27
2017-12-31T00:38:20.296Z,18.75
2017-12-31T00:39:26.592Z,14.85
2017-12-31T00:40:32.891Z,17.98
2017-12-31T00:41:39.222Z,20.58
2017-12-31T00:42:45.542Z,16.23
2017-12-31T00:43:51.798Z,19.58
2017-12-31T00:44:58.234Z,13.80
2017-12-31T00:46:05.426Z,19.55
2017-12-31T00:47:12.574Z,14.60
2017-12-31T00:48:18.868Z,14.63
2017-12-31T00:49:25.157Z,15.15
2017-12-31T00:50:31.442Z,12.13
2017-12-31T00:51:37.707Z,12.43
2017-12-31T00:52:44.402Z,20.27
2017-12-31T00:53:50.682Z,14.07
2017-12-31T00:54:56.911Z,13.50
2017-12-31T00:56:03.204Z,11.98
2017-12-31T00:57:09.490Z,13.00
2017-12-31T00:58:19.420Z,15.15
2017-12-31T00:59:25.774Z,13.45
2017-12-31T01:00:32.009Z,12.60
2017-12-31T01:01:38.255Z,12.88
2017-12-31T01:02:44.565Z,17.85
2017-12-31T01:03:50.722Z,12.95
2017-12-31T01:04:57.004Z,14.70
2017-12-31T01:06:03.891Z,18.37
2017-12-31T01:07:15.162Z,14.70
2017-12-31T01:08:22.621Z,15.65
2017-12-31T01:09:28.997Z,17.10
2017-12-31T01:10:35.245Z,12.05
2017-12-31T01:11:41.493Z,16.27
2017-12-31T01:12:47.732Z,10.23
2017-12-31T01:13:53.999Z,17.67
2017-12-31T01:15:00.291Z,16.60
2017-12-31T01:16:06.538Z,13.70
2017-12-31T01:17:12.817Z,15.10
2017-12-31T01:18:19.055Z,17.25
2017-12-31T01:19:25.675Z,15.88
2017-12-31T01:20:31.912Z,15.45
2017-12-31T01:21:38.092Z,17.30
2017-12-31T01:22:44.407Z,14.65
2017-12-31T01:23:50.647Z,16.27
2017-12-31T01:25:07.645Z,12.63
2017-12-31T01:26:13.865Z,11.88
2017-12-31T01:27:20.098Z,15.45
2017-12-31T01:28:26.317Z,13.95
2017-12-31T01:29:33.091Z,10.77
2017-12-31T01:30:39.434Z,13.80
2017-12-31T01:31:45.516Z,12.98
2017-12-31T01:32:51.775Z,17.98
2017-12-31T01:33:57.967Z,17.42
2017-12-31T01:35:04.223Z,11.70
2017-12-31T01:36:12.564Z,16.70
2017-12-31T01:37:18.830Z,12.55
2017-12-31T01:38:25.155Z,11.93
2017-12-31T01:39:31.390Z,15.02
2017-12-31T01:40:37.661Z,11.40
2017-12-31T01:41:44.810Z,14.05
2017-12-31T01:42:51.394Z,11.52
2017-12-31T01:43:58.503Z,16.73
2017-12-31T01:45:04.739Z,13.05
2017-12-31T01:46:10.986Z,12.35
2017-12-31T01:47:18.125Z,15.32
2017-12-31T01:48:24.364Z,10.10
2017-12-31T01:49:30.800Z,11.18
2017-12-31T01:50:37.015Z,13.13
2017-12-31T01:51:43.249Z,12.30
2017-12-31T01:52:49.530Z,15.73
2017-12-31T01:53:55.766Z,14.27
2017-12-31T01:55:02.218Z,12.93
2017-12-31T01:56:08.462Z,14.65
2017-12-31T01:57:14.734Z,16.77
2017-12-31T01:58:20.927Z,12.35
2017-12-31T01:59:27.505Z,13.52
2017-12-31T02:00:33.689Z,14.57
2017-12-31T02:01:38.597Z,18.58
2017-12-31T02:02:44.590Z,16.60
2017-12-31T02:03:54.854Z,14.95
2017-12-31T02:05:01.046Z,18.67
2017-12-31T02:06:06.966Z,14.57
2017-12-31T02:07:13.202Z,14.82
2017-12-31T02:08:19.416Z,12.45
2017-12-31T02:09:26.546Z,14.43
2017-12-31T02:10:34.646Z,13.75
2017-12-31T02:11:41.517Z,10.95
2017-12-31T02:12:48.620Z,12.50
2017-12-31T02:13:54.809Z,13.82
2017-12-31T02:15:01.143Z,15.85
2017-12-31T02:16:07.381Z,18.80
2017-12-31T02:17:13.462Z,12.37
2017-12-31T02:18:19.283Z,15.82
2017-12-31T02:19:25.464Z,14.25
2017-12-31T02:20:31.645Z,18.75
2017-12-31T02:21:38.868Z,9.80
2017-12-31T02:22:46.044Z,18.90
2017-12-31T02:23:52.243Z,12.85
2017-12-31T02:24:58.497Z,13.10
2017-12-31T02:26:04.716Z,9.75
2017-12-31T02:27:11.678Z,11.60
2017-12-31T02:28:20.723Z,14.13
2017-12-31T02:29:26.909Z,11.20
2017-12-31T02:30:33.142Z,13.10
2017-12-31T02:31:39.335Z,10.02
2017-12-31T02:32:45.584Z,13.90
2017-12-31T02:33:51.750Z,9.95
2017-12-31T02:34:58.032Z,11.65
2017-12-31T02:36:05.154Z,15.77
2017-12-31T02:37:11.381Z,13.15
2017-12-31T02:38:17.269Z,16.45
2017-12-31T02:39:29.924Z,10.68
2017-12-31T02:40:36.139Z,13.32
2017-12-31T02:41:42.380Z,13.10
2017-12-31T02:42:48.717Z,16.98
2017-12-31T02:43:55.482Z,16.83
2017-12-31T02:45:02.032Z,15.52
2017-12-31T02:46:08.301Z,15.88
2017-12-31T02:47:14.513Z,11.63
2017-12-31T02:48:20.733Z,13.10
2017-12-31T02:49:26.685Z,12.75
2017-12-31T02:50:33.739Z,12.18
2017-12-31T02:51:39.947Z,13.95
2017-12-31T02:52:46.228Z,15.90
2017-12-31T02:53:55.265Z,10.68
2017-12-31T02:55:01.494Z,7.78
2017-12-31T02:56:07.704Z,14.02
2017-12-31T02:57:14.549Z,9.73
2017-12-31T02:58:20.763Z,10.30
2017-12-31T03:00:38.276Z,11.15
2017-12-31T03:01:44.482Z,13.75
2017-12-31T03:02:50.722Z,12.90
2017-12-31T03:03:56.946Z,12.70
2017-12-31T03:05:03.259Z,19.20
2017-12-31T03:06:09.468Z,10.05
2017-12-31T03:07:15.733Z,17.83
2017-12-31T03:08:22.168Z,13.90
2017-12-31T03:09:28.430Z,13.60
2017-12-31T03:10:34.342Z,13.13
2017-12-31T03:11:40.533Z,12.37
2017-12-31T03:12:46.741Z,16.75
2017-12-31T03:13:52.972Z,16.20
2017-12-31T03:14:59.078Z,12.60
2017-12-31T03:16:07.191Z,13.07
2017-12-31T03:17:13.513Z,13.82
2017-12-31T03:18:19.781Z,14.18
2017-12-31T03:19:25.986Z,18.80
2017-12-31T03:20:32.158Z,15.07
2017-12-31T03:21:38.586Z,13.60
2017-12-31T03:22:44.950Z,14.45
2017-12-31T03:23:51.153Z,11.70
2017-12-31T03:24:57.041Z,15.20
2017-12-31T03:26:03.699Z,13.00
2017-12-31T03:27:09.880Z,13.98
2017-12-31T03:28:16.121Z,12.93
2017-12-31T03:29:22.305Z,15.32
2017-12-31T03:30:29.382Z,16.42
2017-12-31T03:31:35.617Z,19.95
2017-12-31T03:32:41.864Z,10.93
2017-12-31T03:33:48.084Z,14.60
2017-12-31T03:34:54.498Z,13.23
2017-12-31T03:36:01.330Z,13.85
2017-12-31T03:37:07.608Z,11.73
2017-12-31T03:38:13.824Z,17.52
2017-12-31T03:39:20.052Z,17.33
2017-12-31T03:40:26.498Z,14.35
2017-12-31T03:41:32.650Z,14.93
2017-12-31T03:42:38.866Z,13.02
2017-12-31T03:43:45.059Z,12.27
2017-12-31T03:44:51.253Z,11.40
2017-12-31T03:45:57.462Z,12.95
2017-12-31T03:47:03.698Z,19.37
2017-12-31T03:48:09.934Z,13.55
2017-12-31T03:49:17.089Z,9.88
2017-12-31T03:50:24.527Z,10.60
2017-12-31T03:51:30.762Z,14.23
2017-12-31T03:52:37.002Z,23.10
2017-12-31T03:53:43.178Z,19.40
2017-12-31T03:54:49.384Z,13.05
2017-12-31T03:55:56.002Z,19.67
2017-12-31T03:57:02.512Z,15.52
2017-12-31T03:58:08.719Z,15.10
2017-12-31T03:59:14.994Z,19.52
2017-12-31T04:00:20.879Z,15.80
2017-12-31T04:01:26.757Z,17.42
2017-12-31T04:02:32.992Z,17.20
2017-12-31T04:03:39.227Z,15.45
2017-12-31T04:04:45.762Z,22.37
2017-12-31T04:05:52.251Z,16.75
2017-12-31T04:06:58.507Z,15.85
2017-12-31T04:08:04.726Z,19.40
2017-12-31T04:09:10.937Z,20.95
2017-12-31T04:10:17.109Z,15.18
2017-12-31T04:11:23.347Z,16.85
2017-12-31T04:12:29.630Z,14.05
2017-12-31T04:13:35.794Z,18.08
2017-12-31T04:14:42.918Z,13.50
2017-12-31T04:15:49.142Z,16.67
2017-12-31T04:16:55.360Z,16.10
2017-12-31T04:18:01.686Z,21.30
2017-12-31T04:19:08.140Z,22.77
2017-12-31T04:20:14.546Z,16.35
2017-12-31T04:21:20.412Z,19.37
2017-12-31T04:22:26.622Z,16.08
2017-12-31T04:23:32.836Z,20.23
2017-12-31T04:24:39.082Z,14.50
2017-12-31T04:25:45.244Z,14.48
2017-12-31T04:26:51.409Z,15.30
2017-12-31T04:27:57.732Z,24.58
2017-12-31T04:29:03.899Z,17.00
2017-12-31T04:30:10.107Z,18.75
2017-12-31T04:31:22.755Z,18.45
2017-12-31T04:32:29.098Z,16.50
2017-12-31T04:33:35.399Z,15.80
2017-12-31T04:34:46.593Z,16.30
2017-12-31T04:35:52.820Z,19.33
2017-12-31T04:36:59.057Z,15.82
2017-12-31T04:38:05.004Z,17.70
2017-12-31T04:39:11.238Z,17.23
2017-12-31T04:40:17.450Z,14.50
2017-12-31T04:41:23.723Z,22.50
2017-12-31T04:42:29.970Z,20.45
2017-12-31T04:43:36.632Z,12.30
2017-12-31T04:44:43.033Z,17.37
2017-12-31T04:45:49.283Z,13.30
2017-12-31T04:46:55.508Z,11.82
2017-12-31T04:48:01.701Z,14.52
2017-12-31T04:49:07.885Z,19.42
2017-12-31T04:50:14.132Z,14.70
2017-12-31T04:51:20.381Z,16.48
2017-12-31T04:52:26.674Z,16.75
2017-12-31T04:53:32.878Z,15.02
2017-12-31T04:54:39.129Z,20.12
2017-12-31T04:55:45.347Z,14.50
2017-12-31T04:56:51.551Z,19.45
2017-12-31T04:57:58.168Z,15.18
2017-12-31T04:59:04.475Z,11.15
2017-12-31T05:00:10.665Z,19.98
2017-12-31T05:01:17.037Z,13.73
2017-12-31T05:02:23.274Z,15.05
2017-12-31T05:03:29.450Z,20.83
2017-12-31T05:04:35.659Z,12.98
2017-12-31T05:05:41.850Z,14.73
2017-12-31T05:06:47.694Z,16.23
2017-12-31T05:07:53.867Z,16.58
2017-12-31T05:09:00.158Z,17.98
2017-12-31T05:10:06.386Z,11.77
2017-12-31T05:11:12.575Z,14.73
2017-12-31T05:12:18.771Z,14.73
2017-12-31T05:13:28.040Z,17.30
2017-12-31T05:14:34.325Z,24.00
2017-12-31T05:15:40.522Z,17.80
2017-12-31T05:16:46.752Z,12.40
2017-12-31T05:17:52.999Z,15.98
2017-12-31T05:18:59.263Z,14.10
2017-12-31T05:20:05.461Z,16.87
2017-12-31T05:21:11.766Z,17.05
2017-12-31T05:22:18.943Z,17.40
2017-12-31T05:23:25.195Z,12.40
2017-12-31T05:24:31.528Z,19.48
2017-12-31T05:25:41.750Z,12.50
2017-12-31T05:26:47.946Z,14.77
2017-12-31T05:27:54.200Z,19.17
2017-12-31T05:29:00.426Z,17.52
2017-12-31T05:30:06.659Z,14.80
2017-12-31T05:31:12.879Z,23.85
2017-12-31T05:32:19.058Z,20.30
2017-12-31T05:33:25.231Z,12.93
2017-12-31T05:34:31.467Z,17.50
2017-12-31T05:35:37.723Z,18.52
2017-12-31T05:36:43.927Z,14.77
2017-12-31T05:37:50.126Z,12.55
2017-12-31T05:38:56.612Z,16.75
2017-12-31T05:40:02.895Z,12.35
2017-12-31T05:41:12.557Z,13.15
2017-12-31T05:42:19.665Z,17.37
2017-12-31T05:43:25.844Z,18.37
2017-12-31T05:44:32.033Z,19.70
2017-12-31T05:45:38.277Z,19.58
2017-12-31T05:46:44.531Z,16.05
2017-12-31T05:47:50.807Z,16.48
2017-12-31T05:48:57.157Z,19.12
2017-12-31T05:50:03.415Z,17.90
2017-12-31T05:51:10.228Z,10.20
2017-12-31T05:52:17.505Z,17.85
2017-12-31T05:53:24.498Z,17.37
2017-12-31T05:54:33.610Z,14.05
2017-12-31T05:55:42.594Z,15.75
2017-12-31T05:56:51.123Z,20.55
2017-12-31T05:57:59.501Z,19.45
2017-12-31T05:59:09.191Z,14.35
2017-12-31T06:00:16.797Z,19.10
2017-12-31T06:01:23.291Z,15.25
2017-12-31T06:02:29.659Z,14.05
2017-12-31T06:03:36.262Z,14.05
2017-12-31T06:04:44.150Z,12.73
2017-12-31T06:05:51.061Z,15.02
2017-12-31T06:06:57.701Z,22.58
2017-12-31T06:08:05.544Z,14.38
2017-12-31T06:09:15.395Z,15.50
2017-12-31T06:10:24.082Z,10.73
2017-12-31T06:11:30.986Z,14.18
2017-12-31T06:12:37.529Z,14.25
2017-12-31T06:13:45.112Z,17.83
2017-12-31T06:14:51.994Z,16.67
2017-12-31T06:15:59.065Z,13.98
2017-12-31T06:17:07.066Z,16.83
2017-12-31T06:18:14.537Z,17.62
2017-12-31T06:19:21.632Z,14.93
2017-12-31T06:20:28.406Z,18.17
2017-12-31T06:21:35.285Z,14.85
2017-12-31T06:22:44.513Z,12.15
2017-12-31T06:23:52.017Z,19.35
2017-12-31T06:24:59.106Z,15.00
2017-12-31T06:26:09.225Z,16.15
2017-12-31T06:27:15.778Z,18.65
2017-12-31T06:28:24.450Z,11.45
2017-12-31T06:29:30.983Z,15.75
2017-12-31T06:30:39.063Z,14.95
2017-12-31T06:31:46.130Z,13.30
2017-12-31T06:32:52.639Z,16.33
2017-12-31T06:34:00.563Z,15.75
2017-12-31T06:35:07.011Z,18.85
2017-12-31T06:36:14.265Z,13.73
2017-12-31T06:37:20.922Z,13.77
2017-12-31T06:38:28.125Z,12.43
2017-12-31T06:39:34.833Z,15.88
2017-12-31T06:40:41.937Z,14.65
2017-12-31T06:41:49.477Z,13.02
2017-12-31T06:42:56.471Z,17.05
2017-12-31T06:44:04.115Z,11.32
2017-12-31T06:45:11.275Z,14.55
2017-12-31T06:46:18.972Z,15.35
2017-12-31T06:47:25.909Z,11.00
2017-12-31T06:48:32.544Z,10.43
2017-12-31T06:49:41.999Z,15.45
2017-12-31T06:50:49.857Z,12.13
2017-12-31T06:51:56.263Z,12.63
2017-12-31T06:53:02.583Z,11.32
2017-12-31T06:54:08.867Z,13.77
2017-12-31T06:55:15.032Z,11.93
2017-12-31T06:56:21.321Z,13.05
2017-12-31T06:57:27.898Z,14.13
2017-12-31T06:58:34.129Z,14.07
2017-12-31T06:59:39.919Z,16.70
2017-12-31T07:00:46.111Z,15.93
2017-12-31T07:01:52.323Z,14.20
2017-12-31T07:02:59.467Z,13.32
2017-12-31T07:04:05.750Z,13.20
2017-12-31T07:05:11.957Z,20.62
2017-12-31T07:06:18.184Z,10.48
2017-12-31T07:07:24.381Z,14.75
2017-12-31T07:08:30.604Z,13.65
2017-12-31T07:09:36.838Z,12.93
2017-12-31T07:10:43.187Z,15.48
2017-12-31T07:11:49.441Z,12.95
2017-12-31T07:12:55.849Z,14.05
2017-12-31T07:14:02.233Z,19.55
2017-12-31T07:15:08.436Z,14.90
2017-12-31T07:16:15.667Z,18.65
2017-12-31T07:17:22.836Z,17.20
2017-12-31T07:18:29.092Z,14.80
2017-12-31T07:19:35.283Z,15.07
2017-12-31T07:20:41.506Z,15.75
2017-12-31T07:21:47.709Z,23.30
2017-12-31T07:22:53.972Z,16.50
2017-12-31T07:24:00.206Z,18.92
2017-12-31T07:25:06.397Z,16.40
2017-12-31T07:26:12.645Z,21.98
2017-12-31T07:27:18.830Z,14.13
2017-12-31T07:28:25.057Z,17.10
2017-12-31T07:29:31.614Z,20.67
2017-12-31T07:30:38.003Z,15.23
2017-12-31T07:31:44.282Z,17.02
2017-12-31T07:32:51.797Z,21.67
2017-12-31T07:34:02.533Z,17.30
2017-12-31T07:35:08.957Z,13.23
2017-12-31T07:36:16.128Z,24.87
2017-12-31T07:37:23.706Z,19.87
2017-12-31T07:38:30.169Z,14.23
2017-12-31T07:39:38.859Z,14.50
2017-12-31T07:40:45.386Z,13.85
2017-12-31T07:41:52.021Z,11.95
2017-12-31T07:42:59.366Z,16.17
2017-12-31T07:44:05.942Z,12.85
2017-12-31T07:45:14.051Z,10.05
2017-12-31T07:46:25.555Z,11.12
2017-12-31T07:47:36.868Z,13.73
2017-12-31T07:48:43.409Z,12.25
2017-12-31T07:49:50.169Z,12.80
2017-12-31T07:50:57.135Z,12.18
2017-12-31T07:52:03.674Z,10.13
2017-12-31T07:53:10.771Z,10.50
2017-12-31T07:54:17.152Z,9.70
2017-12-31T07:55:23.378Z,13.52
2017-12-31T07:56:30.274Z,7.43
2017-12-31T07:57:38.657Z,9.57
2017-12-31T07:58:45.975Z,7.28
2017-12-31T07:59:53.055Z,8.07
2017-12-31T08:01:01.351Z,11.40
2017-12-31T08:02:08.606Z,6.25
2017-12-31T08:03:16.945Z,14.00
2017-12-31T08:04:23.914Z,7.18
2017-12-31T08:05:31.536Z,12.25
2017-12-31T08:06:38.477Z,8.40
2017-12-31T08:07:50.229Z,10.00
2017-12-31T08:08:57.454Z,7.30
2017-12-31T08:10:05.318Z,8.55
2017-12-31T08:11:12.635Z,7.00
2017-12-31T08:12:19.159Z,7.50
2017-12-31T08:13:27.148Z,8.45
2017-12-31T08:14:34.743Z,8.55
2017-12-31T08:15:41.224Z,6.65
2017-12-31T08:16:47.933Z,12.63
2017-12-31T08:17:54.218Z,10.23
2017-12-31T08:19:00.853Z,10.68
2017-12-31T08:20:08.911Z,6.07
2017-12-31T08:21:16.270Z,9.55
2017-12-31T08:22:24.163Z,11.38
2017-12-31T08:23:32.321Z,8.52
2017-12-31T08:24:40.003Z,7.80
2017-12-31T08:25:46.767Z,8.52
2017-12-31T08:26:53.436Z,11.38
2017-12-31T08:28:00.355Z,7.55
2017-12-31T08:29:06.603Z,5.05
2017-12-31T08:30:12.828Z,8.48
2017-12-31T08:31:19.096Z,7.05
2017-12-31T08:32:25.258Z,6.65
2017-12-31T08:33:31.154Z,7.28
2017-12-31T08:34:37.998Z,7.05
2017-12-31T08:35:44.249Z,11.32
2017-12-31T08:36:50.523Z,5.40
2017-12-31T08:37:56.777Z,7.55
2017-12-31T08:39:03.094Z,5.87
2017-12-31T08:40:09.686Z,8.95
2017-12-31T08:41:15.974Z,11.38
2017-12-31T08:42:22.154Z,6.78
2017-12-31T08:43:28.558Z,7.12
2017-12-31T08:44:35.513Z,5.22
2017-12-31T08:45:42.487Z,7.12
2017-12-31T08:46:48.704Z,7.28
2017-12-31T08:47:54.944Z,5.37
2017-12-31T08:49:00.978Z,7.68
2017-12-31T08:50:07.155Z,11.70
2017-12-31T08:51:13.351Z,6.15
2017-12-31T08:52:19.531Z,6.50
2017-12-31T08:53:26.915Z,6.20
2017-12-31T08:54:34.622Z,5.87
2017-12-31T08:55:42.272Z,4.57
2017-12-31T08:56:51.642Z,7.35
2017-12-31T08:57:59.435Z,2.97
2017-12-31T08:59:06.777Z,4.28
2017-12-31T09:00:14.963Z,5.28
2017-12-31T09:01:22.749Z,5.25
2017-12-31T09:02:30.427Z,2.50
2017-12-31T09:03:37.442Z,3.00
2017-12-31T09:04:49.882Z,4.40
2017-12-31T09:07:14.586Z,6.93
2017-12-31T09:08:21.899Z,5.03
2017-12-31T09:09:29.508Z,5.10
2017-12-31T09:10:38.127Z,4.85
2017-12-31T09:11:45.702Z,6.22
2017-12-31T09:12:53.314Z,4.85
2017-12-31T09:14:00.781Z,5.80
2017-12-31T09:15:09.022Z,4.35
2017-12-31T09:16:16.369Z,9.52
2017-12-31T09:17:26.788Z,3.25
2017-12-31T09:18:34.543Z,3.85
2017-12-31T09:19:42.521Z,4.10
2017-12-31T09:20:50.278Z,3.35
2017-12-31T09:21:57.281Z,3.97
2017-12-31T09:23:09.800Z,6.05
2017-12-31T09:24:18.158Z,4.12
2017-12-31T09:25:25.765Z,3.53
2017-12-31T09:26:31.985Z,2.10
2017-12-31T09:27:39.057Z,3.25
2017-12-31T09:28:46.674Z,3.90
2017-12-31T09:29:55.190Z,5.45
2017-12-31T09:31:02.730Z,4.22
2017-12-31T09:32:10.343Z,3.87
2017-12-31T09:33:20.381Z,4.82
2017-12-31T09:34:27.128Z,5.97
2017-12-31T09:35:34.011Z,6.37
2017-12-31T09:36:41.824Z,6.50
2017-12-31T09:37:49.471Z,6.35
2017-12-31T09:38:57.958Z,2.65
2017-12-31T09:40:05.441Z,2.87
2017-12-31T09:41:12.471Z,2.37
2017-12-31T09:42:20.119Z,5.93
2017-12-31T09:43:28.423Z,6.62
2017-12-31T09:44:35.775Z,3.90
2017-12-31T09:45:43.525Z,3.90
2017-12-31T09:46:51.627Z,4.85
2017-12-31T09:48:00.064Z,5.15
2017-12-31T09:49:07.704Z,4.05
2017-12-31T09:50:15.897Z,10.05
2017-12-31T09:51:23.523Z,4.55
2017-12-31T09:52:31.117Z,5.85
2017-12-31T09:53:38.794Z,6.00
2017-12-31T09:54:45.815Z,7.97
2017-12-31T09:55:53.815Z,8.57
2017-12-31T09:57:00.084Z,5.40
2017-12-31T09:58:07.064Z,5.82
2017-12-31T09:59:14.735Z,7.43
2017-12-31T10:00:22.414Z,8.43
2017-12-31T10:01:30.442Z,8.30
2017-12-31T10:02:37.699Z,9.88
2017-12-31T10:03:45.693Z,4.85
2017-12-31T10:04:53.442Z,5.10
2017-12-31T10:06:01.221Z,5.15
2017-12-31T10:07:14.364Z,5.10
2017-12-31T10:08:21.475Z,7.03
2017-12-31T10:09:29.444Z,6.40
2017-12-31T10:10:37.116Z,8.25
2017-12-31T10:11:44.124Z,7.03
2017-12-31T10:12:50.382Z,9.85
2017-12-31T10:13:56.593Z,6.55
2017-12-31T10:15:02.869Z,5.95
2017-12-31T10:16:09.142Z,5.10
2017-12-31T10:17:15.366Z,5.60
2017-12-31T10:18:24.571Z,7.25
2017-12-31T10:19:32.107Z,6.05
2017-12-31T10:20:39.659Z,6.60
2017-12-31T10:21:47.115Z,8.85
2017-12-31T10:22:54.640Z,8.70
2017-12-31T10:24:02.122Z,6.10
2017-12-31T10:25:09.720Z,8.55
2017-12-31T10:26:17.999Z,5.18
2017-12-31T10:27:26.574Z,9.75
2017-12-31T10:28:33.496Z,5.10
2017-12-31T10:29:40.301Z,6.60
2017-12-31T10:30:46.571Z,6.85
2017-12-31T10:31:52.810Z,4.90
2017-12-31T10:32:59.033Z,6.65
2017-12-31T10:34:05.316Z,6.50
2017-12-31T10:35:11.568Z,4.18
2017-12-31T10:36:17.767Z,7.43
2017-12-31T10:37:24.009Z,10.07
2017-12-31T10:38:30.235Z,6.30
2017-12-31T10:39:36.227Z,7.30
2017-12-31T10:40:42.490Z,6.72
2017-12-31T10:41:48.688Z,10.13
2017-12-31T10:42:54.849Z,3.28
2017-12-31T10:44:01.068Z,5.07
2017-12-31T10:45:07.320Z,3.97
2017-12-31T10:46:13.350Z,6.68
2017-12-31T10:47:19.560Z,8.18
2017-12-31T10:48:25.774Z,4.97
2017-12-31T10:49:32.005Z,5.87
2017-12-31T10:50:38.200Z,6.43
2017-12-31T10:51:44.407Z,8.38
2017-12-31T10:52:50.627Z,4.37
2017-12-31T10:53:56.869Z,3.65
2017-12-31T10:55:03.057Z,4.78
2017-12-31T10:56:09.235Z,4.47
2017-12-31T10:57:15.453Z,9.60
2017-12-31T10:58:21.684Z,4.70
2017-12-31T10:59:27.884Z,4.57
2017-12-31T11:00:37.193Z,4.43
2017-12-31T11:01:43.156Z,5.30
2017-12-31T11:02:49.382Z,6.12
2017-12-31T11:03:55.623Z,6.95
2017-12-31T11:05:01.990Z,3.70
2017-12-31T11:06:08.154Z,4.07
2017-12-31T11:07:14.403Z,6.45
2017-12-31T11:08:20.583Z,6.40
2017-12-31T11:09:26.763Z,6.32
2017-12-31T11:10:36.942Z,6.22
2017-12-31T11:11:43.202Z,5.40
2017-12-31T11:12:49.432Z,6.05
2017-12-31T11:13:55.700Z,4.57
2017-12-31T11:15:01.975Z,4.00
2017-12-31T11:16:08.297Z,2.40
2017-12-31T11:17:14.463Z,3.92
2017-12-31T11:18:20.714Z,3.85
2017-12-31T11:19:26.965Z,5.32
2017-12-31T11:20:33.166Z,6.53
2017-12-31T11:21:39.339Z,5.18
2017-12-31T11:22:45.633Z,3.45
2017-12-31T11:23:51.897Z,6.50
2017-12-31T11:24:58.131Z,8.27
2017-12-31T11:26:04.349Z,5.75
2017-12-31T11:27:10.596Z,5.65
2017-12-31T11:28:16.794Z,3.33
2017-12-31T11:29:23.305Z,3.97
2017-12-31T11:30:29.508Z,3.40
2017-12-31T11:31:35.793Z,4.32
2017-12-31T11:32:42.022Z,2.95
2017-12-31T11:33:48.434Z,5.85
2017-12-31T11:34:54.620Z,5.10
2017-12-31T11:36:00.789Z,2.72
2017-12-31T11:37:07.099Z,6.00
2017-12-31T11:38:13.154Z,3.65
2017-12-31T11:39:19.434Z,4.25
2017-12-31T11:40:25.625Z,4.20
2017-12-31T11:41:31.832Z,3.45
2017-12-31T11:42:38.074Z,7.87
2017-12-31T11:43:44.290Z,5.45
2017-12-31T11:44:50.506Z,4.32
2017-12-31T11:45:56.753Z,7.53
2017-12-31T11:47:03.230Z,6.57
2017-12-31T11:48:09.466Z,3.62
2017-12-31T11:49:16.653Z,4.85
2017-12-31T11:50:23.017Z,5.45
2017-12-31T11:51:29.199Z,3.37
2017-12-31T11:52:35.444Z,4.60
2017-12-31T11:53:41.700Z,3.58
2017-12-31T11:54:48.188Z,4.00
2017-12-31T11:55:54.373Z,4.12
2017-12-31T11:57:00.614Z,3.35
2017-12-31T11:58:06.874Z,3.53
2017-12-31T11:59:13.077Z,5.65
2017-12-31T12:00:19.292Z,3.22
2017-12-31T12:01:25.550Z,3.22
2017-12-31T12:02:31.907Z,4.30
2017-12-31T12:03:38.106Z,4.90
2017-12-31T12:04:44.358Z,4.05
2017-12-31T12:05:50.566Z,4.50
2017-12-31T12:06:56.801Z,3.53
2017-12-31T12:08:03.088Z,4.15
2017-12-31T12:09:09.347Z,5.87
2017-12-31T12:10:15.594Z,4.40
2017-12-31T12:11:21.906Z,4.70
2017-12-31T12:12:28.220Z,4.97
2017-12-31T12:13:34.433Z,6.03
2017-12-31T12:14:40.634Z,3.70
2017-12-31T12:15:48.755Z,3.40
2017-12-31T12:16:54.666Z,3.33
2017-12-31T12:18:00.985Z,3.53
2017-12-31T12:19:07.418Z,6.62
2017-12-31T12:20:13.361Z,1.85
2017-12-31T12:21:19.647Z,4.20
2017-12-31T12:22:25.974Z,3.90
2017-12-31T12:23:32.328Z,2.85
2017-12-31T12:24:38.604Z,3.20
2017-12-31T12:25:44.905Z,3.33
2017-12-31T12:26:51.202Z,4.75
2017-12-31T12:27:57.133Z,5.85
2017-12-31T12:29:03.433Z,2.62
2017-12-31T12:30:09.791Z,3.20
2017-12-31T12:31:16.503Z,3.45
2017-12-31T12:32:23.754Z,4.20
2017-12-31T12:33:30.002Z,7.15
2017-12-31T12:34:36.283Z,3.80
2017-12-31T12:35:42.627Z,4.15
2017-12-31T12:36:49.042Z,4.65
2017-12-31T12:37:55.299Z,4.18
2017-12-31T12:39:01.560Z,3.75
2017-12-31T12:40:07.957Z,3.80
2017-12-31T12:41:14.214Z,3.97
2017-12-31T12:42:20.640Z,4.85
2017-12-31T12:43:26.965Z,3.65
2017-12-31T12:44:33.248Z,3.80
2017-12-31T12:45:39.591Z,5.15
2017-12-31T12:46:45.903Z,3.10
2017-12-31T12:47:52.215Z,3.10
2017-12-31T12:48:58.181Z,3.83
2017-12-31T12:50:04.113Z,3.08
2017-12-31T12:51:10.374Z,1.70
2017-12-31T12:52:16.604Z,4.82
2017-12-31T12:53:22.878Z,2.25
2017-12-31T12:54:29.157Z,6.68
2017-12-31T12:55:35.383Z,5.00
2017-12-31T12:56:41.609Z,5.53
2017-12-31T12:57:47.835Z,5.03
2017-12-31T12:58:54.158Z,5.03
2017-12-31T13:00:00.510Z,2.87
2017-12-31T13:01:06.838Z,3.10
2017-12-31T13:02:13.143Z,3.70
2017-12-31T13:03:19.428Z,2.35
2017-12-31T13:04:26.387Z,2.83
2017-12-31T13:05:32.715Z,4.20
2017-12-31T13:06:39.176Z,3.28
2017-12-31T13:07:51.523Z,5.80
2017-12-31T13:08:57.838Z,5.57
2017-12-31T13:10:04.116Z,4.80
2017-12-31T13:11:10.392Z,2.90
2017-12-31T13:12:16.620Z,2.33
2017-12-31T13:13:22.922Z,3.33
2017-12-31T13:14:29.201Z,5.40
2017-12-31T13:15:35.478Z,4.62
2017-12-31T13:16:41.778Z,4.18
2017-12-31T13:17:48.101Z,3.03
2017-12-31T13:18:54.741Z,4.45
2017-12-31T13:20:01.564Z,4.05
2017-12-31T13:21:12.896Z,6.05
2017-12-31T13:22:19.105Z,3.47
2017-12-31T13:23:25.028Z,4.35
2017-12-31T13:24:31.365Z,4.40
2017-12-31T13:25:37.665Z,1.98
2017-12-31T13:26:43.983Z,2.58
2017-12-31T13:27:50.301Z,7.25
2017-12-31T13:28:56.545Z,2.00
2017-12-31T13:30:04.124Z,3.90
2017-12-31T13:31:10.396Z,3.35
2017-12-31T13:32:17.114Z,4.30
2017-12-31T13:33:23.316Z,3.67
2017-12-31T13:34:29.584Z,3.25
2017-12-31T13:35:35.773Z,4.05
2017-12-31T13:36:42.008Z,3.90
2017-12-31T13:37:48.731Z,4.32
2017-12-31T13:38:55.011Z,4.35
2017-12-31T13:40:01.318Z,4.05
2017-12-31T13:41:13.995Z,4.18
2017-12-31T13:42:24.210Z,3.53
2017-12-31T13:43:30.648Z,3.03
2017-12-31T13:44:36.884Z,6.75
2017-12-31T13:45:43.228Z,7.78
2017-12-31T13:46:49.509Z,5.68
2017-12-31T13:47:55.794Z,3.72
2017-12-31T13:49:02.217Z,3.33
2017-12-31T13:50:09.877Z,4.65
2017-12-31T13:51:16.066Z,2.37
2017-12-31T13:52:22.393Z,3.12
2017-12-31T13:53:28.666Z,4.18
2017-12-31T13:54:34.626Z,2.65
2017-12-31T13:55:40.915Z,3.65
2017-12-31T13:56:47.214Z,3.92
2017-12-31T13:57:53.489Z,5.87
2017-12-31T13:58:59.746Z,3.90
2017-12-31T14:00:09.502Z,4.82
2017-12-31T14:01:15.812Z,3.67
2017-12-31T14:02:22.061Z,3.80
2017-12-31T14:03:28.429Z,5.32
2017-12-31T14:04:34.700Z,4.72
2017-12-31T14:05:41.095Z,3.80
2017-12-31T14:06:47.415Z,6.10
2017-12-31T14:07:53.743Z,6.20
2017-12-31T14:08:59.956Z,3.45
2017-12-31T14:10:06.174Z,4.50
2017-12-31T14:11:12.425Z,4.37
2017-12-31T14:12:18.680Z,2.95
2017-12-31T14:13:24.848Z,4.40
2017-12-31T14:14:31.047Z,3.05
2017-12-31T14:15:37.300Z,4.25
2017-12-31T14:16:45.893Z,3.15
2017-12-31T14:17:52.308Z,2.97
2017-12-31T14:18:58.603Z,3.33
2017-12-31T14:20:04.802Z,4.62
2017-12-31T14:21:11.090Z,4.15
2017-12-31T14:22:17.359Z,5.60
2017-12-31T14:23:23.614Z,3.72
2017-12-31T14:24:29.928Z,2.72
2017-12-31T14:25:35.803Z,3.33
2017-12-31T14:26:42.051Z,6.18
2017-12-31T14:27:48.384Z,3.62
2017-12-31T14:28:54.613Z,3.45
2017-12-31T14:30:00.897Z,4.93
2017-12-31T14:31:07.026Z,2.25
2017-12-31T14:32:13.330Z,4.40
2017-12-31T14:33:19.517Z,4.32
2017-12-31T14:34:25.700Z,4.03